sensor_id;sensor_type;location;lat;lon;timestamp;P1;durP1;ratioP1;P2;durP2;ratioP2
18505;SDS011;9382;53.242;10.438;2023-03-16T00:01:46;8.27;;;3.60;;
18505;SDS011;9382;53.242;10.438;2023-03-16T00:04:13;8.00;;;3.60;;
18505;SDS011;9382;53.242;10.438;2023-03-16T00:06:39;8.83;;;3.53;;
18505;SDS011;9382;53.242;10.438;2023-03-16T00:09:06;7.63;;;3.57;;
18505;SDS011;9382;53.242;10.438;2023-03-16T00:11:33;8.70;;;3.63;;
18505;SDS011;9382;53.242;10.438;2023-03-16T00:14:00;7.93;;;3.53;;
18505;SDS011;9382;53.242;10.438;2023-03-16T00:16:28;8.00;;;3.70;;
18505;SDS011;9382;53.242;10.438;2023-03-16T00:18:56;10.50;;;3.87;;
18505;SDS011;9382;53.242;10.438;2023-03-16T00:21:23;10.93;;;3.53;;
18505;SDS011;9382;53.242;10.438;2023-03-16T00:23:50;7.80;;;3.40;;
18505;SDS011;9382;53.242;10.438;2023-03-16T00:26:17;9.67;;;3.70;;
18505;SDS011;9382;53.242;10.438;2023-03-16T00:28:44;8.57;;;3.43;;
18505;SDS011;9382;53.242;10.438;2023-03-16T00:31:11;8.30;;;3.37;;
18505;SDS011;9382;53.242;10.438;2023-03-16T00:33:38;6.67;;;3.27;;
18505;SDS011;9382;53.242;10.438;2023-03-16T00:36:08;7.30;;;3.60;;
18505;SDS011;9382;53.242;10.438;2023-03-16T00:38:36;11.03;;;3.97;;
18505;SDS011;9382;53.242;10.438;2023-03-16T00:41:05;7.97;;;4.10;;
18505;SDS011;9382;53.242;10.438;2023-03-16T00:43:34;10.07;;;3.77;;
18505;SDS011;9382;53.242;10.438;2023-03-16T00:46:05;8.67;;;3.30;;
18505;SDS011;9382;53.242;10.438;2023-03-16T00:48:32;8.90;;;3.73;;
18505;SDS011;9382;53.242;10.438;2023-03-16T00:50:59;9.57;;;3.60;;
18505;SDS011;9382;53.242;10.438;2023-03-16T00:53:28;10.93;;;3.57;;
18505;SDS011;9382;53.242;10.438;2023-03-16T00:55:55;10.50;;;3.40;;
18505;SDS011;9382;53.242;10.438;2023-03-16T00:58:22;8.17;;;3.33;;
18505;SDS011;9382;53.242;10.438;2023-03-16T01:00:49;8.70;;;3.37;;
18505;SDS011;9382;53.242;10.438;2023-03-16T01:03:17;8.10;;;3.43;;
18505;SDS011;9382;53.242;10.438;2023-03-16T01:05:44;11.80;;;3.63;;
18505;SDS011;9382;53.242;10.438;2023-03-16T01:08:11;8.23;;;3.80;;
18505;SDS011;9382;53.242;10.438;2023-03-16T01:10:39;6.03;;;3.30;;
18505;SDS011;9382;53.242;10.438;2023-03-16T01:13:05;10.83;;;3.90;;
18505;SDS011;9382;53.242;10.438;2023-03-16T01:15:32;8.80;;;3.60;;
18505;SDS011;9382;53.242;10.438;2023-03-16T01:17:59;7.47;;;3.40;;
18505;SDS011;9382;53.242;10.438;2023-03-16T01:20:26;10.30;;;3.77;;
18505;SDS011;9382;53.242;10.438;2023-03-16T01:22:53;8.03;;;3.83;;
18505;SDS011;9382;53.242;10.438;2023-03-16T01:25:20;8.77;;;3.37;;
18505;SDS011;9382;53.242;10.438;2023-03-16T01:27:49;6.60;;;3.33;;
18505;SDS011;9382;53.242;10.438;2023-03-16T01:30:17;8.67;;;3.50;;
18505;SDS011;9382;53.242;10.438;2023-03-16T01:32:45;9.10;;;3.20;;
18505;SDS011;9382;53.242;10.438;2023-03-16T01:35:12;12.33;;;3.60;;
18505;SDS011;9382;53.242;10.438;2023-03-16T01:37:38;7.37;;;3.93;;
18505;SDS011;9382;53.242;10.438;2023-03-16T01:40:06;6.00;;;3.50;;
18505;SDS011;9382;53.242;10.438;2023-03-16T01:42:41;10.13;;;3.60;;
18505;SDS011;9382;53.242;10.438;2023-03-16T01:48:11;7.53;;;3.73;;
18505;SDS011;9382;53.242;10.438;2023-03-16T01:50:39;8.07;;;3.40;;
18505;SDS011;9382;53.242;10.438;2023-03-16T01:53:07;8.70;;;3.77;;
18505;SDS011;9382;53.242;10.438;2023-03-16T01:55:34;9.30;;;3.77;;
18505;SDS011;9382;53.242;10.438;2023-03-16T01:58:01;11.00;;;4.43;;
18505;SDS011;9382;53.242;10.438;2023-03-16T02:00:28;9.07;;;3.50;;
18505;SDS011;9382;53.242;10.438;2023-03-16T02:02:58;6.30;;;3.97;;
18505;SDS011;9382;53.242;10.438;2023-03-16T02:05:32;8.30;;;3.60;;
18505;SDS011;9382;53.242;10.438;2023-03-16T02:08:06;7.20;;;3.80;;
18505;SDS011;9382;53.242;10.438;2023-03-16T02:10:34;8.73;;;3.73;;
18505;SDS011;9382;53.242;10.438;2023-03-16T02:13:02;10.33;;;3.83;;
18505;SDS011;9382;53.242;10.438;2023-03-16T02:15:29;9.63;;;4.17;;
18505;SDS011;9382;53.242;10.438;2023-03-16T02:17:56;10.53;;;4.17;;
18505;SDS011;9382;53.242;10.438;2023-03-16T02:20:28;10.50;;;4.20;;
18505;SDS011;9382;53.242;10.438;2023-03-16T02:23:01;12.50;;;4.53;;
18505;SDS011;9382;53.242;10.438;2023-03-16T02:25:38;10.53;;;4.40;;
18505;SDS011;9382;53.242;10.438;2023-03-16T02:28:13;11.17;;;4.00;;
18505;SDS011;9382;53.242;10.438;2023-03-16T02:30:46;10.93;;;4.10;;
18505;SDS011;9382;53.242;10.438;2023-03-16T02:33:13;10.97;;;4.00;;
18505;SDS011;9382;53.242;10.438;2023-03-16T02:35:42;11.17;;;4.50;;
18505;SDS011;9382;53.242;10.438;2023-03-16T02:38:09;10.50;;;4.37;;
18505;SDS011;9382;53.242;10.438;2023-03-16T02:40:35;9.00;;;4.27;;
18505;SDS011;9382;53.242;10.438;2023-03-16T02:43:04;8.50;;;4.40;;
18505;SDS011;9382;53.242;10.438;2023-03-16T02:45:35;12.47;;;4.30;;
18505;SDS011;9382;53.242;10.438;2023-03-16T02:48:08;11.20;;;4.80;;
18505;SDS011;9382;53.242;10.438;2023-03-16T02:50:46;10.90;;;4.07;;
18505;SDS011;9382;53.242;10.438;2023-03-16T02:53:16;12.27;;;4.63;;
18505;SDS011;9382;53.242;10.438;2023-03-16T02:55:43;7.83;;;4.37;;
18505;SDS011;9382;53.242;10.438;2023-03-16T02:58:11;9.17;;;4.27;;
18505;SDS011;9382;53.242;10.438;2023-03-16T03:00:38;16.20;;;5.13;;
18505;SDS011;9382;53.242;10.438;2023-03-16T03:03:05;11.57;;;4.73;;
18505;SDS011;9382;53.242;10.438;2023-03-16T03:05:34;11.30;;;4.70;;
18505;SDS011;9382;53.242;10.438;2023-03-16T03:08:01;9.03;;;4.70;;
18505;SDS011;9382;53.242;10.438;2023-03-16T03:10:28;10.63;;;4.93;;
18505;SDS011;9382;53.242;10.438;2023-03-16T03:12:55;9.53;;;4.40;;
18505;SDS011;9382;53.242;10.438;2023-03-16T03:15:22;8.73;;;4.47;;
18505;SDS011;9382;53.242;10.438;2023-03-16T03:17:49;14.90;;;4.50;;
18505;SDS011;9382;53.242;10.438;2023-03-16T03:20:17;9.10;;;5.00;;
18505;SDS011;9382;53.242;10.438;2023-03-16T03:22:46;10.57;;;4.80;;
18505;SDS011;9382;53.242;10.438;2023-03-16T03:25:16;8.63;;;4.80;;
18505;SDS011;9382;53.242;10.438;2023-03-16T03:27:45;8.80;;;4.60;;
18505;SDS011;9382;53.242;10.438;2023-03-16T03:30:14;9.00;;;4.50;;
18505;SDS011;9382;53.242;10.438;2023-03-16T03:32:42;10.70;;;4.30;;
18505;SDS011;9382;53.242;10.438;2023-03-16T03:35:09;13.43;;;4.40;;
18505;SDS011;9382;53.242;10.438;2023-03-16T03:37:39;10.00;;;4.77;;
18505;SDS011;9382;53.242;10.438;2023-03-16T03:40:07;8.90;;;4.13;;
18505;SDS011;9382;53.242;10.438;2023-03-16T03:42:35;13.00;;;4.47;;
18505;SDS011;9382;53.242;10.438;2023-03-16T03:45:02;15.70;;;5.93;;
18505;SDS011;9382;53.242;10.438;2023-03-16T03:47:29;7.20;;;4.70;;
18505;SDS011;9382;53.242;10.438;2023-03-16T03:49:56;16.70;;;4.60;;
18505;SDS011;9382;53.242;10.438;2023-03-16T03:52:23;12.73;;;4.70;;
18505;SDS011;9382;53.242;10.438;2023-03-16T03:54:51;7.77;;;4.17;;
18505;SDS011;9382;53.242;10.438;2023-03-16T03:57:18;11.80;;;4.50;;
18505;SDS011;9382;53.242;10.438;2023-03-16T03:59:44;13.57;;;5.00;;
18505;SDS011;9382;53.242;10.438;2023-03-16T04:02:11;8.77;;;4.47;;
18505;SDS011;9382;53.242;10.438;2023-03-16T04:04:39;11.90;;;4.70;;
18505;SDS011;9382;53.242;10.438;2023-03-16T04:07:06;7.03;;;3.93;;
18505;SDS011;9382;53.242;10.438;2023-03-16T04:09:33;12.07;;;4.50;;
18505;SDS011;9382;53.242;10.438;2023-03-16T04:12:02;7.73;;;4.27;;
18505;SDS011;9382;53.242;10.438;2023-03-16T04:14:30;10.67;;;4.40;;
18505;SDS011;9382;53.242;10.438;2023-03-16T04:16:57;9.87;;;4.70;;
18505;SDS011;9382;53.242;10.438;2023-03-16T04:19:24;14.47;;;4.77;;
18505;SDS011;9382;53.242;10.438;2023-03-16T04:21:51;10.33;;;4.23;;
18505;SDS011;9382;53.242;10.438;2023-03-16T04:24:18;9.73;;;4.80;;
18505;SDS011;9382;53.242;10.438;2023-03-16T04:26:46;9.73;;;4.70;;
18505;SDS011;9382;53.242;10.438;2023-03-16T04:29:15;8.53;;;4.07;;
18505;SDS011;9382;53.242;10.438;2023-03-16T04:31:42;10.77;;;4.73;;
18505;SDS011;9382;53.242;10.438;2023-03-16T04:34:09;9.80;;;4.63;;
18505;SDS011;9382;53.242;10.438;2023-03-16T04:36:36;10.70;;;4.67;;
18505;SDS011;9382;53.242;10.438;2023-03-16T04:39:03;9.03;;;4.53;;
18505;SDS011;9382;53.242;10.438;2023-03-16T04:41:31;8.43;;;4.33;;
18505;SDS011;9382;53.242;10.438;2023-03-16T04:43:58;11.70;;;4.93;;
18505;SDS011;9382;53.242;10.438;2023-03-16T04:46:26;9.10;;;4.40;;
18505;SDS011;9382;53.242;10.438;2023-03-16T04:48:53;9.97;;;4.60;;
18505;SDS011;9382;53.242;10.438;2023-03-16T04:51:22;11.37;;;4.60;;
18505;SDS011;9382;53.242;10.438;2023-03-16T04:53:49;12.70;;;4.47;;
18505;SDS011;9382;53.242;10.438;2023-03-16T04:56:15;12.30;;;4.60;;
18505;SDS011;9382;53.242;10.438;2023-03-16T04:58:43;8.63;;;4.43;;
18505;SDS011;9382;53.242;10.438;2023-03-16T05:01:10;12.03;;;4.80;;
18505;SDS011;9382;53.242;10.438;2023-03-16T05:03:38;12.17;;;4.67;;
18505;SDS011;9382;53.242;10.438;2023-03-16T05:06:06;11.67;;;4.27;;
18505;SDS011;9382;53.242;10.438;2023-03-16T05:08:34;12.20;;;4.33;;
18505;SDS011;9382;53.242;10.438;2023-03-16T05:11:01;13.97;;;4.47;;
18505;SDS011;9382;53.242;10.438;2023-03-16T05:13:27;7.87;;;4.23;;
18505;SDS011;9382;53.242;10.438;2023-03-16T05:15:54;7.23;;;4.10;;
18505;SDS011;9382;53.242;10.438;2023-03-16T05:18:21;10.00;;;4.40;;
18505;SDS011;9382;53.242;10.438;2023-03-16T05:20:50;9.23;;;4.00;;
18505;SDS011;9382;53.242;10.438;2023-03-16T05:23:17;10.57;;;4.30;;
18505;SDS011;9382;53.242;10.438;2023-03-16T05:25:45;9.10;;;4.67;;
18505;SDS011;9382;53.242;10.438;2023-03-16T05:28:11;11.83;;;5.13;;
18505;SDS011;9382;53.242;10.438;2023-03-16T05:30:39;9.93;;;4.50;;
18505;SDS011;9382;53.242;10.438;2023-03-16T05:33:06;12.37;;;4.60;;
18505;SDS011;9382;53.242;10.438;2023-03-16T05:35:33;11.93;;;4.40;;
18505;SDS011;9382;53.242;10.438;2023-03-16T05:38:01;9.67;;;4.43;;
18505;SDS011;9382;53.242;10.438;2023-03-16T05:40:28;13.67;;;4.80;;
18505;SDS011;9382;53.242;10.438;2023-03-16T05:42:55;11.87;;;4.47;;
18505;SDS011;9382;53.242;10.438;2023-03-16T05:45:24;8.40;;;4.43;;
18505;SDS011;9382;53.242;10.438;2023-03-16T05:47:51;8.90;;;4.90;;
18505;SDS011;9382;53.242;10.438;2023-03-16T05:50:18;15.07;;;4.60;;
18505;SDS011;9382;53.242;10.438;2023-03-16T05:52:45;13.97;;;4.60;;
18505;SDS011;9382;53.242;10.438;2023-03-16T05:55:14;11.40;;;4.80;;
18505;SDS011;9382;53.242;10.438;2023-03-16T05:57:41;10.07;;;4.47;;
18505;SDS011;9382;53.242;10.438;2023-03-16T06:00:09;9.07;;;4.17;;
18505;SDS011;9382;53.242;10.438;2023-03-16T06:02:40;8.13;;;4.50;;
18505;SDS011;9382;53.242;10.438;2023-03-16T06:05:07;8.70;;;4.27;;
18505;SDS011;9382;53.242;10.438;2023-03-16T06:07:35;10.70;;;4.27;;
18505;SDS011;9382;53.242;10.438;2023-03-16T06:10:02;10.90;;;4.77;;
18505;SDS011;9382;53.242;10.438;2023-03-16T06:12:30;10.40;;;4.27;;
18505;SDS011;9382;53.242;10.438;2023-03-16T06:14:58;15.23;;;4.80;;
18505;SDS011;9382;53.242;10.438;2023-03-16T06:17:25;11.00;;;5.10;;
18505;SDS011;9382;53.242;10.438;2023-03-16T06:19:52;10.43;;;5.37;;
18505;SDS011;9382;53.242;10.438;2023-03-16T06:22:18;9.93;;;4.77;;
18505;SDS011;9382;53.242;10.438;2023-03-16T06:24:45;9.83;;;5.13;;
18505;SDS011;9382;53.242;10.438;2023-03-16T06:27:12;9.37;;;5.00;;
18505;SDS011;9382;53.242;10.438;2023-03-16T06:29:40;10.63;;;4.70;;
18505;SDS011;9382;53.242;10.438;2023-03-16T06:32:07;10.63;;;5.13;;
18505;SDS011;9382;53.242;10.438;2023-03-16T06:34:35;9.97;;;4.50;;
18505;SDS011;9382;53.242;10.438;2023-03-16T06:37:02;11.00;;;4.90;;
18505;SDS011;9382;53.242;10.438;2023-03-16T06:39:29;9.03;;;4.83;;
18505;SDS011;9382;53.242;10.438;2023-03-16T06:41:55;7.73;;;4.43;;
18505;SDS011;9382;53.242;10.438;2023-03-16T06:44:22;8.20;;;3.87;;
18505;SDS011;9382;53.242;10.438;2023-03-16T06:46:50;10.77;;;4.53;;
18505;SDS011;9382;53.242;10.438;2023-03-16T06:49:17;12.90;;;5.07;;
18505;SDS011;9382;53.242;10.438;2023-03-16T06:51:45;7.23;;;4.27;;
18505;SDS011;9382;53.242;10.438;2023-03-16T06:54:11;10.03;;;4.50;;
18505;SDS011;9382;53.242;10.438;2023-03-16T06:56:38;6.93;;;4.07;;
18505;SDS011;9382;53.242;10.438;2023-03-16T06:59:05;9.83;;;4.10;;
18505;SDS011;9382;53.242;10.438;2023-03-16T07:01:32;6.87;;;4.20;;
18505;SDS011;9382;53.242;10.438;2023-03-16T07:04:00;6.60;;;3.73;;
18505;SDS011;9382;53.242;10.438;2023-03-16T07:06:27;7.43;;;4.00;;
18505;SDS011;9382;53.242;10.438;2023-03-16T07:08:54;11.60;;;4.40;;
18505;SDS011;9382;53.242;10.438;2023-03-16T07:11:21;10.00;;;4.80;;
18505;SDS011;9382;53.242;10.438;2023-03-16T07:13:48;7.33;;;3.90;;
18505;SDS011;9382;53.242;10.438;2023-03-16T07:16:15;11.13;;;4.10;;
18505;SDS011;9382;53.242;10.438;2023-03-16T07:18:42;10.20;;;4.20;;
18505;SDS011;9382;53.242;10.438;2023-03-16T07:21:10;10.70;;;4.30;;
18505;SDS011;9382;53.242;10.438;2023-03-16T07:23:38;9.23;;;3.87;;
18505;SDS011;9382;53.242;10.438;2023-03-16T07:26:05;9.47;;;4.37;;
18505;SDS011;9382;53.242;10.438;2023-03-16T07:28:32;7.37;;;4.13;;
18505;SDS011;9382;53.242;10.438;2023-03-16T07:30:59;6.73;;;3.73;;
18505;SDS011;9382;53.242;10.438;2023-03-16T07:33:26;8.30;;;3.83;;
18505;SDS011;9382;53.242;10.438;2023-03-16T07:35:53;7.77;;;3.97;;
18505;SDS011;9382;53.242;10.438;2023-03-16T07:38:21;7.13;;;3.60;;
18505;SDS011;9382;53.242;10.438;2023-03-16T07:40:48;9.87;;;3.87;;
18505;SDS011;9382;53.242;10.438;2023-03-16T07:43:16;7.60;;;3.77;;
18505;SDS011;9382;53.242;10.438;2023-03-16T07:45:46;9.70;;;3.83;;
18505;SDS011;9382;53.242;10.438;2023-03-16T07:48:13;6.83;;;3.70;;
18505;SDS011;9382;53.242;10.438;2023-03-16T07:50:39;10.03;;;3.70;;
18505;SDS011;9382;53.242;10.438;2023-03-16T07:53:06;10.13;;;3.83;;
18505;SDS011;9382;53.242;10.438;2023-03-16T07:55:35;7.60;;;3.70;;
18505;SDS011;9382;53.242;10.438;2023-03-16T07:58:03;11.57;;;3.70;;
18505;SDS011;9382;53.242;10.438;2023-03-16T08:00:30;5.77;;;3.30;;
18505;SDS011;9382;53.242;10.438;2023-03-16T08:02:57;9.47;;;3.83;;
18505;SDS011;9382;53.242;10.438;2023-03-16T08:05:24;6.27;;;3.30;;
18505;SDS011;9382;53.242;10.438;2023-03-16T08:07:51;5.17;;;3.30;;
18505;SDS011;9382;53.242;10.438;2023-03-16T08:10:21;6.23;;;3.23;;
18505;SDS011;9382;53.242;10.438;2023-03-16T08:12:49;5.93;;;3.00;;
18505;SDS011;9382;53.242;10.438;2023-03-16T08:15:16;6.87;;;3.13;;
18505;SDS011;9382;53.242;10.438;2023-03-16T08:17:43;7.70;;;3.60;;
18505;SDS011;9382;53.242;10.438;2023-03-16T08:20:11;7.73;;;3.53;;
18505;SDS011;9382;53.242;10.438;2023-03-16T08:22:39;6.60;;;3.27;;
18505;SDS011;9382;53.242;10.438;2023-03-16T08:25:06;4.87;;;2.80;;
18505;SDS011;9382;53.242;10.438;2023-03-16T08:27:35;9.97;;;3.00;;
18505;SDS011;9382;53.242;10.438;2023-03-16T08:30:04;7.03;;;2.80;;
18505;SDS011;9382;53.242;10.438;2023-03-16T08:32:35;9.07;;;3.10;;
18505;SDS011;9382;53.242;10.438;2023-03-16T08:35:03;7.53;;;3.10;;
18505;SDS011;9382;53.242;10.438;2023-03-16T08:37:31;8.80;;;3.20;;
18505;SDS011;9382;53.242;10.438;2023-03-16T08:39:58;6.17;;;2.97;;
18505;SDS011;9382;53.242;10.438;2023-03-16T08:42:25;7.13;;;2.90;;
18505;SDS011;9382;53.242;10.438;2023-03-16T08:44:53;8.13;;;2.90;;
18505;SDS011;9382;53.242;10.438;2023-03-16T08:47:22;7.20;;;2.83;;
18505;SDS011;9382;53.242;10.438;2023-03-16T08:49:49;3.73;;;2.67;;
18505;SDS011;9382;53.242;10.438;2023-03-16T08:52:16;7.77;;;2.73;;
18505;SDS011;9382;53.242;10.438;2023-03-16T08:54:43;5.03;;;2.53;;
18505;SDS011;9382;53.242;10.438;2023-03-16T08:57:10;5.60;;;2.60;;
18505;SDS011;9382;53.242;10.438;2023-03-16T08:59:36;5.73;;;2.50;;
18505;SDS011;9382;53.242;10.438;2023-03-16T09:02:03;8.57;;;2.50;;
18505;SDS011;9382;53.242;10.438;2023-03-16T09:04:31;5.60;;;2.53;;
18505;SDS011;9382;53.242;10.438;2023-03-16T09:06:58;4.40;;;2.10;;
18505;SDS011;9382;53.242;10.438;2023-03-16T09:09:24;5.30;;;2.63;;
18505;SDS011;9382;53.242;10.438;2023-03-16T09:11:51;3.77;;;2.23;;
18505;SDS011;9382;53.242;10.438;2023-03-16T09:14:18;6.43;;;2.40;;
18505;SDS011;9382;53.242;10.438;2023-03-16T09:16:45;6.60;;;2.50;;
18505;SDS011;9382;53.242;10.438;2023-03-16T09:19:12;7.63;;;2.67;;
18505;SDS011;9382;53.242;10.438;2023-03-16T09:21:40;4.77;;;2.30;;
18505;SDS011;9382;53.242;10.438;2023-03-16T09:24:07;4.23;;;2.37;;
18505;SDS011;9382;53.242;10.438;2023-03-16T09:26:34;5.97;;;2.57;;
18505;SDS011;9382;53.242;10.438;2023-03-16T09:29:01;4.73;;;2.33;;
18505;SDS011;9382;53.242;10.438;2023-03-16T09:31:31;5.83;;;2.70;;
18505;SDS011;9382;53.242;10.438;2023-03-16T09:33:58;5.63;;;2.20;;
18505;SDS011;9382;53.242;10.438;2023-03-16T09:36:25;5.10;;;2.20;;
18505;SDS011;9382;53.242;10.438;2023-03-16T09:38:53;6.10;;;2.23;;
18505;SDS011;9382;53.242;10.438;2023-03-16T09:41:30;3.90;;;2.03;;
18505;SDS011;9382;53.242;10.438;2023-03-16T09:44:08;5.13;;;2.23;;
18505;SDS011;9382;53.242;10.438;2023-03-16T09:46:45;5.03;;;1.97;;
18505;SDS011;9382;53.242;10.438;2023-03-16T09:49:16;5.30;;;2.03;;
18505;SDS011;9382;53.242;10.438;2023-03-16T09:51:46;5.03;;;2.00;;
18505;SDS011;9382;53.242;10.438;2023-03-16T09:54:19;4.27;;;2.10;;
18505;SDS011;9382;53.242;10.438;2023-03-16T09:56:52;4.47;;;1.80;;
18505;SDS011;9382;53.242;10.438;2023-03-16T09:59:20;3.20;;;2.07;;
18505;SDS011;9382;53.242;10.438;2023-03-16T10:01:51;3.07;;;1.77;;
18505;SDS011;9382;53.242;10.438;2023-03-16T10:04:35;2.53;;;1.60;;
18505;SDS011;9382;53.242;10.438;2023-03-16T10:07:12;6.63;;;1.50;;
18505;SDS011;9382;53.242;10.438;2023-03-16T10:09:49;3.13;;;1.37;;
18505;SDS011;9382;53.242;10.438;2023-03-16T10:12:21;2.97;;;1.50;;
18505;SDS011;9382;53.242;10.438;2023-03-16T10:14:52;3.87;;;1.50;;
18505;SDS011;9382;53.242;10.438;2023-03-16T10:17:24;4.97;;;1.50;;
18505;SDS011;9382;53.242;10.438;2023-03-16T10:19:56;2.27;;;1.40;;
18505;SDS011;9382;53.242;10.438;2023-03-16T10:22:28;3.27;;;1.20;;
18505;SDS011;9382;53.242;10.438;2023-03-16T10:25:03;4.50;;;1.40;;
18505;SDS011;9382;53.242;10.438;2023-03-16T10:27:33;3.27;;;1.30;;
18505;SDS011;9382;53.242;10.438;2023-03-16T10:30:03;1.10;;;1.10;;
18505;SDS011;9382;53.242;10.438;2023-03-16T10:32:33;2.30;;;1.20;;
18505;SDS011;9382;53.242;10.438;2023-03-16T10:35:01;3.10;;;1.40;;
18505;SDS011;9382;53.242;10.438;2023-03-16T10:37:30;3.57;;;1.50;;
18505;SDS011;9382;53.242;10.438;2023-03-16T10:39:58;3.83;;;1.53;;
18505;SDS011;9382;53.242;10.438;2023-03-16T10:42:27;4.17;;;1.27;;
18505;SDS011;9382;53.242;10.438;2023-03-16T10:44:57;4.33;;;1.43;;
18505;SDS011;9382;53.242;10.438;2023-03-16T10:47:27;3.37;;;1.23;;
18505;SDS011;9382;53.242;10.438;2023-03-16T10:49:55;3.80;;;1.40;;
18505;SDS011;9382;53.242;10.438;2023-03-16T10:52:32;2.53;;;1.30;;
18505;SDS011;9382;53.242;10.438;2023-03-16T10:55:01;3.80;;;1.30;;
18505;SDS011;9382;53.242;10.438;2023-03-16T10:57:39;4.87;;;1.20;;
18505;SDS011;9382;53.242;10.438;2023-03-16T11:00:11;2.50;;;1.20;;
18505;SDS011;9382;53.242;10.438;2023-03-16T11:02:46;3.30;;;1.37;;
18505;SDS011;9382;53.242;10.438;2023-03-16T11:05:14;3.03;;;1.27;;
18505;SDS011;9382;53.242;10.438;2023-03-16T11:07:54;2.00;;;1.23;;
18505;SDS011;9382;53.242;10.438;2023-03-16T11:10:27;2.23;;;1.30;;
18505;SDS011;9382;53.242;10.438;2023-03-16T11:13:01;1.23;;;1.10;;
18505;SDS011;9382;53.242;10.438;2023-03-16T11:15:34;1.40;;;1.00;;
18505;SDS011;9382;53.242;10.438;2023-03-16T11:18:03;2.27;;;1.30;;
18505;SDS011;9382;53.242;10.438;2023-03-16T11:20:33;2.80;;;1.10;;
18505;SDS011;9382;53.242;10.438;2023-03-16T11:23:01;1.90;;;1.07;;
18505;SDS011;9382;53.242;10.438;2023-03-16T11:25:28;2.20;;;1.10;;
18505;SDS011;9382;53.242;10.438;2023-03-16T11:28:03;3.43;;;1.00;;
18505;SDS011;9382;53.242;10.438;2023-03-16T11:30:39;2.47;;;1.07;;
18505;SDS011;9382;53.242;10.438;2023-03-16T11:33:09;1.93;;;1.13;;
18505;SDS011;9382;53.242;10.438;2023-03-16T11:35:41;3.90;;;1.10;;
18505;SDS011;9382;53.242;10.438;2023-03-16T11:38:17;2.30;;;0.90;;
18505;SDS011;9382;53.242;10.438;2023-03-16T11:40:49;1.73;;;1.10;;
18505;SDS011;9382;53.242;10.438;2023-03-16T11:46:13;2.50;;;1.10;;
18505;SDS011;9382;53.242;10.438;2023-03-16T11:48:46;2.90;;;1.07;;
18505;SDS011;9382;53.242;10.438;2023-03-16T11:51:23;1.67;;;1.00;;
18505;SDS011;9382;53.242;10.438;2023-03-16T11:54:00;2.17;;;1.00;;
18505;SDS011;9382;53.242;10.438;2023-03-16T11:56:35;2.20;;;0.90;;
18505;SDS011;9382;53.242;10.438;2023-03-16T11:59:13;1.07;;;1.00;;
18505;SDS011;9382;53.242;10.438;2023-03-16T12:02:12;1.00;;;1.00;;
18505;SDS011;9382;53.242;10.438;2023-03-16T12:05:07;2.50;;;1.10;;
18505;SDS011;9382;53.242;10.438;2023-03-16T12:07:57;1.90;;;1.17;;
18505;SDS011;9382;53.242;10.438;2023-03-16T12:10:32;1.07;;;0.97;;
18505;SDS011;9382;53.242;10.438;2023-03-16T12:13:07;1.23;;;1.03;;
18505;SDS011;9382;53.242;10.438;2023-03-16T12:15:53;2.17;;;1.10;;
18505;SDS011;9382;53.242;10.438;2023-03-16T12:18:25;3.73;;;1.10;;
18505;SDS011;9382;53.242;10.438;2023-03-16T12:20:58;1.07;;;0.90;;
18505;SDS011;9382;53.242;10.438;2023-03-16T12:23:29;1.80;;;1.00;;
18505;SDS011;9382;53.242;10.438;2023-03-16T12:26:00;1.60;;;1.00;;
18505;SDS011;9382;53.242;10.438;2023-03-16T12:28:28;1.37;;;1.00;;
18505;SDS011;9382;53.242;10.438;2023-03-16T12:31:01;1.20;;;0.80;;
18505;SDS011;9382;53.242;10.438;2023-03-16T12:36:40;1.57;;;0.80;;
18505;SDS011;9382;53.242;10.438;2023-03-16T12:39:25;1.23;;;1.00;;
18505;SDS011;9382;53.242;10.438;2023-03-16T12:42:05;0.90;;;0.80;;
18505;SDS011;9382;53.242;10.438;2023-03-16T12:44:46;3.00;;;1.20;;
18505;SDS011;9382;53.242;10.438;2023-03-16T12:47:18;0.83;;;0.83;;
18505;SDS011;9382;53.242;10.438;2023-03-16T12:49:52;1.27;;;0.93;;
18505;SDS011;9382;53.242;10.438;2023-03-16T12:52:20;1.13;;;0.80;;
18505;SDS011;9382;53.242;10.438;2023-03-16T12:54:48;1.57;;;0.80;;
18505;SDS011;9382;53.242;10.438;2023-03-16T12:57:17;1.00;;;0.90;;
18505;SDS011;9382;53.242;10.438;2023-03-16T12:59:46;1.03;;;0.80;;
18505;SDS011;9382;53.242;10.438;2023-03-16T13:02:16;1.90;;;0.90;;
18505;SDS011;9382;53.242;10.438;2023-03-16T13:04:47;1.80;;;0.77;;
18505;SDS011;9382;53.242;10.438;2023-03-16T13:07:21;0.80;;;0.80;;
18505;SDS011;9382;53.242;10.438;2023-03-16T13:09:50;0.93;;;0.87;;
18505;SDS011;9382;53.242;10.438;2023-03-16T13:12:23;1.17;;;0.90;;
18505;SDS011;9382;53.242;10.438;2023-03-16T13:14:52;0.90;;;0.90;;
18505;SDS011;9382;53.242;10.438;2023-03-16T13:17:25;1.43;;;0.80;;
18505;SDS011;9382;53.242;10.438;2023-03-16T13:19:57;2.00;;;0.90;;
18505;SDS011;9382;53.242;10.438;2023-03-16T13:22:39;1.87;;;0.80;;
18505;SDS011;9382;53.242;10.438;2023-03-16T13:25:13;1.63;;;0.90;;
18505;SDS011;9382;53.242;10.438;2023-03-16T13:27:47;1.77;;;1.00;;
18505;SDS011;9382;53.242;10.438;2023-03-16T13:30:17;1.80;;;0.87;;
18505;SDS011;9382;53.242;10.438;2023-03-16T13:32:47;1.40;;;0.90;;
18505;SDS011;9382;53.242;10.438;2023-03-16T13:35:18;1.10;;;0.90;;
18505;SDS011;9382;53.242;10.438;2023-03-16T13:37:49;1.77;;;1.00;;
18505;SDS011;9382;53.242;10.438;2023-03-16T13:40:17;2.17;;;1.23;;
18505;SDS011;9382;53.242;10.438;2023-03-16T13:42:46;1.23;;;0.87;;
18505;SDS011;9382;53.242;10.438;2023-03-16T13:45:14;3.13;;;0.90;;
18505;SDS011;9382;53.242;10.438;2023-03-16T13:47:47;2.53;;;0.87;;
18505;SDS011;9382;53.242;10.438;2023-03-16T13:50:16;2.07;;;1.00;;
18505;SDS011;9382;53.242;10.438;2023-03-16T13:52:49;1.10;;;1.00;;
18505;SDS011;9382;53.242;10.438;2023-03-16T13:55:22;0.90;;;0.90;;
18505;SDS011;9382;53.242;10.438;2023-03-16T13:57:55;2.00;;;0.90;;
18505;SDS011;9382;53.242;10.438;2023-03-16T14:00:22;0.87;;;0.80;;
18505;SDS011;9382;53.242;10.438;2023-03-16T14:02:53;1.13;;;1.00;;
18505;SDS011;9382;53.242;10.438;2023-03-16T14:05:21;1.10;;;1.00;;
18505;SDS011;9382;53.242;10.438;2023-03-16T14:07:51;1.83;;;1.10;;
18505;SDS011;9382;53.242;10.438;2023-03-16T14:10:20;1.50;;;1.20;;
18505;SDS011;9382;53.242;10.438;2023-03-16T14:12:51;1.53;;;1.03;;
18505;SDS011;9382;53.242;10.438;2023-03-16T14:15:18;1.90;;;1.10;;
18505;SDS011;9382;53.242;10.438;2023-03-16T14:17:46;1.63;;;1.20;;
18505;SDS011;9382;53.242;10.438;2023-03-16T14:20:16;1.30;;;1.00;;
18505;SDS011;9382;53.242;10.438;2023-03-16T14:22:45;1.83;;;1.43;;
18505;SDS011;9382;53.242;10.438;2023-03-16T14:25:15;3.73;;;1.40;;
18505;SDS011;9382;53.242;10.438;2023-03-16T14:27:46;4.80;;;1.20;;
18505;SDS011;9382;53.242;10.438;2023-03-16T14:30:14;1.83;;;1.27;;
18505;SDS011;9382;53.242;10.438;2023-03-16T14:32:52;2.83;;;1.30;;
18505;SDS011;9382;53.242;10.438;2023-03-16T14:35:24;2.30;;;1.20;;
18505;SDS011;9382;53.242;10.438;2023-03-16T14:37:54;1.87;;;1.20;;
18505;SDS011;9382;53.242;10.438;2023-03-16T14:40:22;2.07;;;1.30;;
18505;SDS011;9382;53.242;10.438;2023-03-16T14:42:51;2.10;;;1.20;;
18505;SDS011;9382;53.242;10.438;2023-03-16T14:45:19;1.90;;;1.27;;
18505;SDS011;9382;53.242;10.438;2023-03-16T14:47:48;5.23;;;1.20;;
18505;SDS011;9382;53.242;10.438;2023-03-16T14:50:20;3.10;;;1.50;;
18505;SDS011;9382;53.242;10.438;2023-03-16T14:52:50;2.63;;;1.10;;
18505;SDS011;9382;53.242;10.438;2023-03-16T14:55:19;1.90;;;1.13;;
18505;SDS011;9382;53.242;10.438;2023-03-16T14:57:47;1.53;;;1.10;;
18505;SDS011;9382;53.242;10.438;2023-03-16T15:00:15;3.60;;;1.20;;
18505;SDS011;9382;53.242;10.438;2023-03-16T15:02:44;2.30;;;1.30;;
18505;SDS011;9382;53.242;10.438;2023-03-16T15:05:19;1.00;;;1.00;;
18505;SDS011;9382;53.242;10.438;2023-03-16T15:07:53;1.83;;;1.20;;